Elk River, MN

5:35 PM CST on February 10, 2016 (GMT -0600)
Where City Meets Country | | Change Station
CLOSE
Current Station
Personal Weather Station
Location: Elk River, MN
Elevation: 985 ft
Nearby Weather Stations

Elev 985 ft 45.36 °N, 93.60 °W | Updated 7 seconds ago

Overcast
Overcast
12.3 °F
Feels Like 12 °F
N
3.0
Wind Variable Wind from NE
Gusts 7.0 mph

Today
High -- | Low -- °F
--% Chance of Precip.
Yesterday
High -- | Low -- °F
Precip. -- in
Pressure 30.16 in
Visibility 10.0 miles
Clouds Overcast 11000 ft
Windchill 12 °F
Dew Point 1 °F
Humidity 59%
Rainfall 0.00 in
Snow Depth Not available.
7:23 AM 5:33 PM
Waxing Crescent, 8% visible
METAR KCFE 102314Z AUTO 03005KT 10SM OVC110 M11/M20 A3016 RMK AO2 T11141199
Pressure 30.16 in
Visibility 10.0 miles
Clouds Overcast 11000 ft
Windchill 12 °F
Dew Point 1 °F
Humidity 59%
Rainfall 0.00 in
Snow Depth Not available.
7:23 AM 5:33 PM
Waxing Crescent, 8% visible
METAR KCFE 102314Z AUTO 03005KT 10SM OVC110 M11/M20 A3016 RMK AO2 T11141199

10-Day Weather Forecast

Almanac

Astronomy

Feb. 10, 2016 Rise Set
Actual Time
Civil Twilight
Nautical Twilight
Astronomical Twilight
Moon
Length of Visible Light
Length of Day
Tomorrow will be .
, % of the Moon is Illuminated

Today's Extremes

State Highs State Lows

Community

WunderPhotos

Upload Photos

1,891,935 photos uploaded!

WunderBlog® & News

Nearby

Air Quality

  Air Quality AQ Index Pollutant
Not available.

Snow Depth

Station Depth Elevation

Earthquake Activity

City Distance Mag. Time & Date
Minimum magnitude displayed is 2.5.

Coastal Water Temperatures

Place Temperature

Stations

Nearby Weather Stations

Station Location Temp. Windchill Dew Point Humidity Wind Precip. Elev Updated Type
                   

Watches & Warnings

There are currently no watches in effect.